Time;durP1;ratioP1;P1;durP2;ratioP2;P2;SDS_P1;SDS_P2;PMS_P1;PMS_P2;Temp;Humidity;BMP_temperature;BMP_pressure;BME280_temperature;BME280_humidity;BME280_pressure;Samples;Min_cycle;Max_cycle;Signal;HPM_P1;HPM_P2
2022/10/22 00:03:24;;;;;;;15.00;7.57;;;;;;;17.35;78.06;99927.31;10376873;28;20065;-62
2022/10/22 00:08:26;;;;;;;14.32;7.50;;;;;;;17.37;78.04;99933.34;10370903;28;20056;-60
2022/10/22 00:13:28;;;;;;;14.45;7.75;;;;;;;17.29;78.78;99922.81;10370450;28;20041;-61
2022/10/22 00:18:29;;;;;;;16.27;7.72;;;;;;;17.18;78.97;99908.13;10353988;28;20058;-58
2022/10/22 00:23:31;;;;;;;14.18;7.47;;;;;;;17.17;79.20;99901.03;10340205;28;20084;-59
2022/10/22 00:28:32;;;;;;;14.48;7.93;;;;;;;17.17;79.17;99903.75;10368912;28;20073;-58
2022/10/22 00:33:34;;;;;;;13.73;7.07;;;;;;;17.15;79.09;99892.28;10365152;28;20121;-59
2022/10/22 00:38:35;;;;;;;19.35;7.82;;;;;;;17.17;78.79;99897.50;10369163;28;20050;-61
2022/10/22 00:44:03;;;;;;;14.25;7.57;;;;;;;17.09;79.24;99895.94;10365235;28;20121;-60
2022/10/22 00:49:04;;;;;;;20.08;8.00;;;;;;;16.95;79.73;99887.13;10371756;28;20066;-62
2022/10/22 00:54:07;;;;;;;16.25;7.80;;;;;;;16.96;79.90;99877.94;10372626;28;20053;-62
2022/10/22 00:59:12;;;;;;;19.33;7.32;;;;;;;16.95;79.98;99870.03;10377208;28;20050;-62
2022/10/22 01:04:13;;;;;;;23.00;7.72;;;;;;;16.94;79.93;99876.50;10385110;28;20046;-61
2022/10/22 01:09:17;;;;;;;21.20;7.85;;;;;;;16.85;80.40;99879.53;10381613;28;20065;-61
2022/10/22 01:14:40;;;;;;;25.80;7.43;;;;;;;16.91;80.46;99890.53;10379901;28;20054;-62
2022/10/22 01:20:14;;;;;;;19.48;7.95;;;;;;;16.87;80.29;99895.59;10380554;28;20559;-63
2022/10/22 01:25:29;;;;;;;20.27;8.45;;;;;;;16.95;80.45;99905.31;10395776;28;20049;-60
2022/10/22 01:30:32;;;;;;;20.13;8.35;;;;;;;17.01;80.14;99915.25;10377620;28;20104;-59
2022/10/22 01:35:41;;;;;;;21.00;9.88;;;;;;;17.06;80.14;99920.81;10376004;28;20042;-61
2022/10/22 01:40:44;;;;;;;27.05;9.55;;;;;;;17.10;80.10;99923.91;10377765;28;20054;-61
2022/10/22 01:45:48;;;;;;;19.48;9.40;;;;;;;17.11;79.80;99918.25;10364228;28;20132;-58
2022/10/22 01:51:12;;;;;;;19.13;9.18;;;;;;;17.13;79.95;99915.31;10371948;28;20045;-58
2022/10/22 01:56:35;;;;;;;25.27;11.00;;;;;;;16.99;80.58;99915.47;10373468;28;20065;-60
2022/10/22 02:01:49;;;;;;;21.85;11.48;;;;;;;16.85;81.01;99916.72;10372437;28;20089;-59
2022/10/22 02:06:54;;;;;;;22.30;11.43;;;;;;;16.91;81.25;99915.81;10371454;28;20045;-59
2022/10/22 02:11:58;;;;;;;27.25;10.27;;;;;;;16.82;81.45;99918.00;10363362;28;20049;-58
2022/10/22 02:17:00;;;;;;;21.52;10.63;;;;;;;16.74;81.75;99923.69;10367966;28;20076;-60
2022/10/22 02:22:02;;;;;;;27.20;13.13;;;;;;;16.76;81.94;99918.03;10371057;28;20517;-60
2022/10/22 02:27:15;;;;;;;23.77;12.23;;;;;;;16.85;81.04;99922.97;10369356;28;20129;-59
2022/10/22 02:32:20;;;;;;;20.00;11.68;;;;;;;16.85;81.03;99933.00;10371712;28;20072;-61
2022/10/22 02:37:24;;;;;;;18.45;9.77;;;;;;;16.76;81.51;99931.63;10373118;28;20060;-60
2022/10/22 02:42:27;;;;;;;16.95;8.65;;;;;;;16.80;81.49;99930.09;10370619;28;20449;-60
2022/10/22 02:47:28;;;;;;;21.95;8.57;;;;;;;16.88;80.83;99934.44;10372774;28;20050;-58
2022/10/22 02:52:30;;;;;;;15.95;6.88;;;;;;;16.87;81.06;99954.50;10370589;28;20057;-63
2022/10/22 02:57:31;;;;;;;12.60;6.55;;;;;;;16.76;81.54;99956.03;10365731;28;20045;-62
2022/10/22 03:02:33;;;;;;;13.20;6.95;;;;;;;16.89;80.78;99946.97;10383475;28;20140;-63
2022/10/22 03:07:34;;;;;;;17.85;8.07;;;;;;;16.90;80.94;99952.13;10384884;28;20053;-61
2022/10/22 03:12:36;;;;;;;21.00;9.20;;;;;;;16.87;81.08;99949.06;10384913;28;20034;-59
2022/10/22 03:17:37;;;;;;;20.40;10.10;;;;;;;16.97;80.71;99954.78;10386425;28;20049;-61
2022/10/22 03:22:41;;;;;;;17.30;9.82;;;;;;;16.92;80.54;99955.44;10386221;28;20045;-62
2022/10/22 03:27:44;;;;;;;21.38;9.68;;;;;;;16.95;80.51;99959.63;10385421;28;20046;-60
2022/10/22 03:32:45;;;;;;;19.70;9.98;;;;;;;17.04;80.13;99960.94;10384997;28;20050;-60
2022/10/22 03:37:47;;;;;;;30.15;11.27;;;;;;;17.10;79.89;99949.19;10352986;28;20046;-59
2022/10/22 03:42:48;;;;;;;23.35;10.55;;;;;;;17.10;80.06;99957.34;10324037;28;20073;-61
2022/10/22 03:47:49;;;;;;;26.15;9.85;;;;;;;16.93;80.80;99967.97;10379871;28;20046;-60
2022/10/22 03:52:52;;;;;;;19.15;8.88;;;;;;;16.80;80.71;99977.06;10378393;28;20049;-64
2022/10/22 03:57:53;;;;;;;15.70;6.38;;;;;;;16.84;80.76;99964.75;10378546;28;20483;-60
2022/10/22 04:02:54;;;;;;;14.80;4.53;;;;;;;16.86;80.13;99967.22;10376405;28;20073;-60
2022/10/22 04:07:56;;;;;;;9.32;3.10;;;;;;;16.88;80.28;99996.88;10376368;28;20035;-59
2022/10/22 04:12:57;;;;;;;11.57;5.00;;;;;;;16.77;80.42;99993.81;10378567;28;20609;-57
2022/10/22 04:17:59;;;;;;;5.10;1.38;;;;;;;16.60;80.75;100001.72;10377856;28;20062;-57
2022/10/22 04:23:00;;;;;;;6.03;1.65;;;;;;;16.54;80.72;99999.06;10374438;28;20088;-60
2022/10/22 04:28:01;;;;;;;3.45;1.00;;;;;;;16.45;80.97;100017.53;10377481;28;20072;-59
2022/10/22 04:33:03;;;;;;;4.13;1.17;;;;;;;16.44;80.87;100021.28;10373236;28;20054;-60
2022/10/22 04:38:04;;;;;;;7.40;1.20;;;;;;;16.43;80.62;100025.91;10375980;28;20066;-59
2022/10/22 04:43:06;;;;;;;4.32;0.90;;;;;;;16.42;80.76;100035.06;10376444;28;20144;-59
2022/10/22 04:48:07;;;;;;;4.43;1.10;;;;;;;16.41;80.60;100036.13;10374113;28;20041;-63
2022/10/22 04:53:08;;;;;;;4.20;1.70;;;;;;;16.40;80.55;100039.06;10373165;28;20459;-61
2022/10/22 04:58:10;;;;;;;2.45;0.98;;;;;;;16.34;80.43;100034.53;10371505;28;20058;-61
2022/10/22 05:03:11;;;;;;;3.58;1.15;;;;;;;16.29;80.36;100032.50;10373708;28;20042;-61
2022/10/22 05:08:12;;;;;;;4.97;0.90;;;;;;;16.22;80.42;100032.53;10372974;28;20050;-62
2022/10/22 05:13:14;;;;;;;4.97;0.85;;;;;;;16.20;80.29;100040.06;10373920;28;20046;-58
2022/10/22 05:18:15;;;;;;;3.33;1.00;;;;;;;16.20;80.11;100050.91;10373821;28;20054;-58
2022/10/22 05:23:22;;;;;;;5.33;1.43;;;;;;;16.20;80.20;100050.91;10372711;28;20046;-61
2022/10/22 05:28:23;;;;;;;2.55;1.30;;;;;;;16.15;80.41;100058.03;10373966;28;20042;-61
2022/10/22 05:33:26;;;;;;;3.65;1.50;;;;;;;16.16;80.56;100065.13;10375011;28;20042;-61
2022/10/22 05:38:27;;;;;;;7.22;1.50;;;;;;;16.13;80.36;100068.28;10375602;28;20081;-61
2022/10/22 05:43:29;;;;;;;6.80;1.33;;;;;;;16.19;80.65;100070.97;10368273;28;20041;-59
2022/10/22 05:48:31;;;;;;;7.35;1.27;;;;;;;16.30;80.37;100082.13;10374979;28;20209;-58
2022/10/22 05:53:40;;;;;;;3.17;1.17;;;;;;;16.31;80.63;100084.63;10372835;28;20049;-58
2022/10/22 05:58:43;;;;;;;3.80;1.30;;;;;;;16.31;80.54;100092.78;10375382;28;20049;-64
2022/10/22 06:03:45;;;;;;;3.03;0.70;;;;;;;16.33;80.61;100101.53;10375697;28;20119;-65
2022/10/22 06:08:49;;;;;;;2.15;1.20;;;;;;;16.47;80.11;100104.97;10366080;28;20109;-66
2022/10/22 06:13:51;;;;;;;3.47;1.33;;;;;;;16.48;79.88;100113.94;10372736;28;20069;-65
2022/10/22 06:18:52;;;;;;;10.10;4.70;;;;;;;16.46;80.01;100108.72;10365248;28;20061;-65
2022/10/22 06:23:58;;;;;;;3.70;1.45;;;;;;;16.39;79.92;100106.06;10366510;28;20085;-65
2022/10/22 06:28:59;;;;;;;3.55;1.05;;;;;;;16.33;80.17;100115.09;10368072;28;20212;-65
2022/10/22 06:34:12;;;;;;;5.57;1.20;;;;;;;16.24;80.39;100125.34;10366127;28;20038;-65
2022/10/22 06:39:15;;;;;;;2.65;0.93;;;;;;;16.24;80.14;100121.81;10370699;28;20473;-65
2022/10/22 06:44:19;;;;;;;4.05;0.90;;;;;;;16.19;80.31;100129.78;10372853;28;20042;-65
2022/10/22 06:49:20;;;;;;;7.47;0.80;;;;;;;16.18;80.17;100136.25;10372081;28;20042;-66
2022/10/22 06:54:22;;;;;;;3.25;0.90;;;;;;;16.14;80.44;100146.72;10373506;28;20038;-66
2022/10/22 06:59:23;;;;;;;2.45;0.98;;;;;;;16.15;80.51;100144.81;10367541;28;20073;-65
2022/10/22 07:04:25;;;;;;;2.10;1.25;;;;;;;16.15;80.62;100156.53;10365003;28;20133;-65
2022/10/22 07:09:26;;;;;;;6.60;0.70;;;;;;;16.15;80.57;100170.06;10369098;28;20034;-66
2022/10/22 07:14:28;;;;;;;1.48;0.88;;;;;;;16.23;80.96;100179.81;10344977;28;20133;-66
2022/10/22 07:19:30;;;;;;;5.45;0.80;;;;;;;16.28;81.03;100190.03;10368598;28;20069;-67
2022/10/22 07:24:31;;;;;;;4.75;0.65;;;;;;;16.32;80.72;100194.78;10371377;28;20049;-66
2022/10/22 07:29:33;;;;;;;2.45;0.50;;;;;;;16.45;80.45;100200.16;10336060;28;20050;-67
2022/10/22 07:34:35;;;;;;;4.20;0.98;;;;;;;16.53;79.99;100207.19;10330420;28;20081;-66
2022/10/22 07:39:39;;;;;;;0.73;0.45;;;;;;;16.45;80.29;100215.59;10349416;28;20053;-68
2022/10/22 07:44:41;;;;;;;6.18;0.60;;;;;;;16.48;79.99;100219.75;10386239;28;20521;-68
2022/10/22 07:49:42;;;;;;;2.03;0.50;;;;;;;16.46;79.82;100225.38;10372807;28;20073;-69
2022/10/22 07:54:43;;;;;;;3.67;0.63;;;;;;;16.47;79.58;100251.50;10377616;28;20049;-67
2022/10/22 07:59:45;;;;;;;2.45;0.50;;;;;;;16.52;79.30;100250.81;10362863;28;20070;-67
2022/10/22 08:04:46;;;;;;;3.78;0.40;;;;;;;16.54;79.17;100254.16;10325181;28;20632;-68
2022/10/22 08:09:48;;;;;;;4.53;0.52;;;;;;;16.64;79.17;100254.50;10356689;28;20073;-68
2022/10/22 08:14:49;;;;;;;3.50;0.60;;;;;;;16.73;78.67;100261.34;10348248;28;20131;-70
2022/10/22 08:19:51;;;;;;;2.10;0.50;;;;;;;16.80;78.85;100261.28;10374588;28;20085;-67
2022/10/22 08:24:52;;;;;;;2.05;0.60;;;;;;;16.85;78.50;100250.66;10375769;28;20073;-68
2022/10/22 08:29:53;;;;;;;4.80;1.33;;;;;;;16.99;78.54;100262.25;10369837;28;20073;-69
2022/10/22 08:34:55;;;;;;;2.22;0.43;;;;;;;16.98;78.01;100274.16;10365125;28;20499;-67
2022/10/22 08:39:56;;;;;;;3.17;0.40;;;;;;;17.02;78.11;100270.78;10365709;28;20551;-67
2022/10/22 08:45:24;;;;;;;2.15;0.40;;;;;;;17.11;77.75;100274.06;10366489;28;20527;-69
2022/10/22 08:50:50;;;;;;;0.75;0.40;;;;;;;16.96;77.54;100284.41;10366308;28;20081;-67
2022/10/22 08:55:53;;;;;;;2.63;0.68;;;;;;;16.93;77.11;100288.38;10354487;28;20042;-66
2022/10/22 09:00:58;;;;;;;0.65;0.30;;;;;;;17.04;76.63;100295.00;10367844;28;20042;-65
2022/10/22 09:06:22;;;;;;;4.20;1.38;;;;;;;16.98;76.54;100302.16;10361790;28;20052;-66
2022/10/22 09:11:34;;;;;;;0.93;0.40;;;;;;;17.06;76.19;100303.75;10365834;28;20045;-63
2022/10/22 09:16:54;;;;;;;1.20;0.30;;;;;;;17.25;76.51;100308.19;10370637;28;20069;-65
2022/10/22 09:22:15;;;;;;;2.60;0.30;;;;;;;17.40;75.91;100305.16;10365739;28;20057;-64
2022/10/22 09:27:20;;;;;;;2.58;0.50;;;;;;;17.52;75.52;100309.88;10360481;28;20056;-65
2022/10/22 09:32:22;;;;;;;0.40;0.30;;;;;;;17.68;75.15;100309.31;10359740;28;20112;-65
2022/10/22 09:37:28;;;;;;;1.85;0.28;;;;;;;17.95;74.48;100315.34;10366937;28;20826;-65
2022/10/22 09:42:32;;;;;;;0.90;0.30;;;;;;;18.24;74.36;100319.19;10359895;28;20046;-66
2022/10/22 09:47:37;;;;;;;2.13;0.55;;;;;;;18.49;73.41;100328.34;10351601;28;20069;-64
2022/10/22 09:53:20;;;;;;;5.72;0.32;;;;;;;18.63;73.22;100325.19;10363034;28;20050;-66
2022/10/22 09:58:22;;;;;;;1.77;0.20;;;;;;;18.58;73.16;100338.69;10363472;28;20125;-66
2022/10/22 10:03:27;;;;;;;4.20;0.20;;;;;;;18.65;72.39;100340.50;10368961;28;20050;-68
2022/10/22 10:08:28;;;;;;;1.10;0.25;;;;;;;18.94;71.80;100338.88;10363703;28;20061;-65
2022/10/22 10:13:45;;;;;;;0.20;0.10;;;;;;;19.14;71.03;100327.69;10358039;28;20117;-66
2022/10/22 10:19:10;;;;;;;2.37;0.20;;;;;;;19.21;71.03;100339.28;10357762;28;20053;-67
2022/10/22 10:24:46;;;;;;;1.27;0.20;;;;;;;19.31;70.34;100334.13;10336389;28;20607;-67
2022/10/22 10:29:55;;;;;;;0.60;0.30;;;;;;;19.40;70.07;100337.31;10365092;28;20033;-67
2022/10/22 10:35:05;;;;;;;2.47;0.40;;;;;;;19.59;69.85;100344.34;10366571;28;20452;-68
2022/10/22 10:40:42;;;;;;;4.47;0.20;;;;;;;19.73;69.58;100342.25;10366743;28;20125;-69
2022/10/22 10:46:02;;;;;;;3.43;0.20;;;;;;;19.70;68.97;100331.75;10310324;28;20144;-70
2022/10/22 10:51:34;;;;;;;1.40;0.20;;;;;;;19.96;68.78;100337.84;10344240;28;20449;-69
2022/10/22 10:56:55;;;;;;;2.70;0.20;;;;;;;20.11;68.08;100334.63;10346756;28;20041;-69
2022/10/22 11:02:34;;;;;;;1.27;0.28;;;;;;;20.12;67.97;100331.66;10353530;28;20077;-70
2022/10/22 11:07:40;;;;;;;1.25;0.20;;;;;;;20.24;67.59;100333.53;10352810;28;20504;-70
2022/10/22 11:12:47;;;;;;;1.00;0.20;;;;;;;20.37;67.79;100323.16;10353497;28;20045;-69
2022/10/22 11:17:51;;;;;;;3.85;0.52;;;;;;;20.51;67.14;100321.00;10340632;28;20074;-69
2022/10/22 11:23:05;;;;;;;2.85;0.40;;;;;;;20.50;66.26;100319.34;10314764;28;20562;-68
2022/10/22 11:28:43;;;;;;;;;;;;;;;20.36;68.95;100320.72;10347337;28;20049;-67
2022/10/22 11:33:56;;;;;;;2.08;0.20;;;;;;;20.50;66.84;100327.53;10312446;28;19929;-68
2022/10/22 11:39:50;;;;;;;3.95;0.38;;;;;;;20.68;66.44;100332.03;10363489;28;20049;-69
2022/10/22 11:45:05;;;;;;;2.40;0.13;;;;;;;20.89;65.22;100330.53;10358102;28;20140;-69
2022/10/22 11:50:25;;;;;;;1.60;0.20;;;;;;;21.00;64.57;100332.34;10332678;28;20081;-70
2022/10/22 11:55:44;;;;;;;4.65;0.22;;;;;;;20.82;63.92;100329.81;10326534;28;20130;-70
2022/10/22 12:00:47;;;;;;;4.22;0.20;;;;;;;20.98;63.77;100333.66;10326338;28;21557;-70
2022/10/22 12:06:04;;;;;;;2.88;0.20;;;;;;;21.18;63.22;100325.81;10328149;28;20052;-71
2022/10/22 12:11:35;;;;;;;2.42;0.20;;;;;;;21.21;62.75;100327.25;10319365;28;20507;-69
2022/10/22 12:16:38;;;;;;;2.45;0.15;;;;;;;21.22;62.49;100319.88;10328605;28;20058;-67
2022/10/22 12:22:05;;;;;;;2.17;0.15;;;;;;;21.61;60.98;100317.25;10368112;28;20050;-69
2022/10/22 12:27:21;;;;;;;2.33;0.20;;;;;;;21.47;60.40;100308.56;10382684;28;20060;-69
2022/10/22 12:32:33;;;;;;;4.65;0.30;;;;;;;21.83;60.37;100306.38;10368138;28;20046;-70
2022/10/22 12:37:36;;;;;;;2.65;0.17;;;;;;;21.94;60.13;100309.00;10366844;28;20113;-67
2022/10/22 12:42:37;;;;;;;2.13;0.28;;;;;;;21.79;59.81;100298.66;10345008;28;20528;-66
2022/10/22 12:47:38;;;;;;;3.90;0.20;;;;;;;21.92;59.80;100308.41;10362823;28;20073;-69
2022/10/22 12:52:40;;;;;;;5.25;0.82;;;;;;;21.94;59.14;100308.19;10366331;28;20054;-69
2022/10/22 12:57:46;;;;;;;0.70;0.20;;;;;;;21.73;58.69;100302.38;10369713;28;20128;-70
2022/10/22 13:02:47;;;;;;;3.95;0.20;;;;;;;21.94;58.86;100302.69;10361205;28;20064;-70
2022/10/22 13:08:00;;;;;;;2.47;0.20;;;;;;;22.12;58.39;100301.56;10365166;28;20057;-68
2022/10/22 13:13:02;;;;;;;2.17;0.15;;;;;;;22.16;58.19;100309.00;10365248;28;20046;-67
2022/10/22 13:18:17;;;;;;;2.70;0.20;;;;;;;22.29;57.93;100307.00;10365977;28;20053;-70
2022/10/22 13:23:21;;;;;;;4.25;0.55;;;;;;;22.09;57.79;100315.75;10363237;28;20458;-69
2022/10/22 13:28:23;;;;;;;3.85;0.43;;;;;;;21.72;57.83;100310.84;10362194;28;20050;-70
2022/10/22 13:33:41;;;;;;;3.38;0.20;;;;;;;21.75;57.70;100304.88;10364031;28;20104;-71
2022/10/22 13:38:43;;;;;;;2.10;0.82;;;;;;;22.18;57.04;100304.09;10355412;28;20672;-70
2022/10/22 13:43:45;;;;;;;1.75;0.38;;;;;;;22.48;56.75;100302.84;10331367;28;20661;-68
2022/10/22 13:48:48;;;;;;;6.65;0.38;;;;;;;22.51;56.47;100302.34;10364874;28;20477;-69
2022/10/22 13:53:51;;;;;;;1.50;0.32;;;;;;;22.57;56.18;100308.69;10363360;28;20049;-69
2022/10/22 13:58:53;;;;;;;4.40;0.28;;;;;;;22.52;56.27;100308.66;10364379;28;20060;-71
2022/10/22 14:04:00;;;;;;;2.42;0.20;;;;;;;22.33;56.19;100305.41;10384073;28;20060;-70
2022/10/22 14:09:07;;;;;;;1.17;0.20;;;;;;;22.40;56.15;100305.22;10400868;28;20053;-69
2022/10/22 14:14:12;;;;;;;8.45;1.88;;;;;;;22.37;56.28;100307.41;10356219;28;20037;-65
2022/10/22 14:19:16;;;;;;;1.33;0.30;;;;;;;22.29;56.41;100315.22;10363771;28;20634;-63
2022/10/22 14:24:18;;;;;;;2.45;0.30;;;;;;;22.22;56.67;100312.66;10381460;28;20052;-68
2022/10/22 14:29:19;;;;;;;3.58;0.63;;;;;;;22.20;56.78;100319.47;10379632;28;20038;-68
2022/10/22 14:34:20;;;;;;;5.28;0.63;;;;;;;22.19;56.83;100313.13;10383563;28;20042;-68
2022/10/22 14:39:22;;;;;;;3.15;0.20;;;;;;;22.51;55.96;100321.53;10380159;28;20074;-69
2022/10/22 14:44:24;;;;;;;1.88;0.30;;;;;;;22.53;55.51;100310.28;10387393;28;20053;-69
2022/10/22 14:49:25;;;;;;;4.28;0.88;;;;;;;22.78;55.75;100313.31;10379796;28;20522;-68
2022/10/22 14:54:27;;;;;;;4.45;0.57;;;;;;;22.97;54.83;100310.22;10383463;28;20046;-69
2022/10/22 14:59:28;;;;;;;2.38;0.30;;;;;;;22.88;54.93;100317.25;10361652;28;20116;-69
2022/10/22 15:04:29;;;;;;;1.77;0.28;;;;;;;22.54;55.89;100320.19;10391900;28;20060;-69
2022/10/22 15:09:31;;;;;;;5.22;0.20;;;;;;;22.43;55.63;100321.97;10368457;28;20053;-69
2022/10/22 15:14:32;;;;;;;4.55;0.68;;;;;;;22.61;55.79;100314.50;10342008;28;20073;-68
2022/10/22 15:19:34;;;;;;;2.65;0.45;;;;;;;22.56;55.69;100316.09;10347803;28;20100;-68
2022/10/22 15:24:35;;;;;;;4.82;0.40;;;;;;;22.59;55.52;100312.03;10367424;28;21079;-69
2022/10/22 15:29:37;;;;;;;3.42;0.82;;;;;;;22.55;55.52;100319.09;10359832;28;20040;-69
2022/10/22 15:34:39;;;;;;;4.70;0.40;;;;;;;22.27;55.73;100326.41;10384469;28;20092;-70
2022/10/22 15:39:41;;;;;;;2.60;0.45;;;;;;;22.06;55.65;100330.78;10384155;28;20456;-70
2022/10/22 15:44:43;;;;;;;3.20;0.40;;;;;;;21.73;56.23;100332.50;10382572;28;20077;-69
2022/10/22 15:49:44;;;;;;;5.00;0.40;;;;;;;21.63;56.63;100337.00;10372315;28;20073;-69
2022/10/22 15:54:46;;;;;;;6.75;0.50;;;;;;;21.64;57.21;100331.25;10374045;28;20070;-69
2022/10/22 15:59:48;;;;;;;9.05;1.08;;;;;;;21.49;56.95;100337.31;10374697;28;20125;-69
2022/10/22 16:04:50;;;;;;;5.25;0.60;;;;;;;21.36;57.77;100337.59;10365240;28;20268;-69
2022/10/22 16:09:56;;;;;;;5.68;0.60;;;;;;;21.20;57.90;100331.06;10328900;28;20124;-69
2022/10/22 16:14:57;;;;;;;16.83;2.70;;;;;;;21.07;58.12;100329.47;10332129;28;20127;-70
2022/10/22 16:19:58;;;;;;;5.70;0.70;;;;;;;20.97;58.83;100332.00;10362875;28;20100;-68
2022/10/22 16:25:00;;;;;;;6.15;0.90;;;;;;;20.82;59.20;100342.66;10357033;28;20066;-69
2022/10/22 16:30:01;;;;;;;7.38;1.23;;;;;;;20.63;59.63;100342.00;10353716;28;20045;-69
2022/10/22 16:35:03;;;;;;;8.95;1.80;;;;;;;20.42;60.04;100338.84;10374306;28;20080;-69
2022/10/22 16:40:06;;;;;;;5.75;1.00;;;;;;;20.25;60.47;100340.66;10366405;28;20776;-69
2022/10/22 16:45:09;;;;;;;4.07;0.98;;;;;;;20.03;60.85;100341.28;10326483;28;20141;-70
2022/10/22 16:50:11;;;;;;;7.70;2.40;;;;;;;19.83;61.54;100340.81;10340637;28;20129;-70
2022/10/22 16:55:12;;;;;;;17.05;8.02;;;;;;;19.66;62.42;100355.13;10366736;28;20129;-63
2022/10/22 17:00:14;;;;;;;23.90;10.98;;;;;;;19.50;62.77;100353.91;10363285;28;20066;-64
2022/10/22 17:05:16;;;;;;;13.70;5.95;;;;;;;19.32;63.27;100357.56;10355334;28;20580;-65
2022/10/22 17:10:20;;;;;;;12.05;5.00;;;;;;;19.13;63.64;100373.16;10349293;28;20137;-62
2022/10/22 17:15:27;;;;;;;12.18;4.25;;;;;;;18.95;64.13;100378.66;10365556;28;20069;-66
2022/10/22 17:20:28;;;;;;;12.52;3.25;;;;;;;18.71;64.96;100389.41;10353849;28;20034;-62
2022/10/22 17:25:43;;;;;;;8.70;3.60;;;;;;;18.51;65.48;100397.00;10329078;28;20173;-64
2022/10/22 17:30:44;;;;;;;7.03;2.83;;;;;;;18.39;65.75;100402.38;10344173;28;20823;-64
2022/10/22 17:35:48;;;;;;;8.95;2.92;;;;;;;18.24;66.13;100400.00;10326869;28;20157;-65
2022/10/22 17:40:49;;;;;;;9.90;3.00;;;;;;;18.13;66.33;100401.59;10328276;28;20042;-64
2022/10/22 17:45:50;;;;;;;11.23;3.88;;;;;;;18.02;66.62;100405.84;10365043;28;20052;-64
2022/10/22 17:50:52;;;;;;;13.68;4.18;;;;;;;17.90;67.03;100407.66;10364559;28;20374;-65
2022/10/22 17:56:05;;;;;;;13.43;2.73;;;;;;;17.78;67.00;100421.09;10364229;28;20081;-64
2022/10/22 18:01:35;;;;;;;13.35;2.67;;;;;;;17.65;67.49;100415.78;10343109;28;20673;-66
2022/10/22 18:06:37;;;;;;;8.20;2.72;;;;;;;17.40;68.31;100432.06;10364932;28;20120;-65
2022/10/22 18:11:39;;;;;;;12.65;4.05;;;;;;;17.35;68.47;100426.44;10337466;28;20051;-66
2022/10/22 18:16:40;;;;;;;8.55;3.35;;;;;;;17.31;68.45;100417.88;10324209;28;20062;-66
2022/10/22 18:21:42;;;;;;;5.93;2.05;;;;;;;17.21;69.18;100426.50;10326648;28;20082;-63
2022/10/22 18:26:43;;;;;;;11.25;2.70;;;;;;;17.15;69.23;100427.38;10323372;28;20571;-64
2022/10/22 18:31:46;;;;;;;18.75;4.85;;;;;;;17.10;69.73;100435.38;10346309;28;20136;-67
2022/10/22 18:36:47;;;;;;;13.68;3.80;;;;;;;17.02;69.89;100428.31;10326923;28;20385;-64
2022/10/22 18:41:49;;;;;;;18.80;5.63;;;;;;;16.94;70.07;100425.00;10338953;28;20489;-63
2022/10/22 18:46:51;;;;;;;12.15;4.38;;;;;;;16.87;70.35;100427.75;10365725;28;20406;-62
2022/10/22 18:51:52;;;;;;;9.52;3.22;;;;;;;16.81;70.03;100425.88;10366944;28;20073;-62
2022/10/22 18:56:56;;;;;;;10.27;2.40;;;;;;;16.72;70.22;100410.84;10325904;28;20088;-63
2022/10/22 19:02:02;;;;;;;8.13;2.28;;;;;;;16.64;70.12;100417.34;10346519;28;20058;-63
2022/10/22 19:07:04;;;;;;;10.60;2.90;;;;;;;16.58;69.88;100423.63;10309602;28;20133;-65
2022/10/22 19:12:07;;;;;;;8.55;2.60;;;;;;;16.48;70.56;100420.56;10367158;28;20077;-66
2022/10/22 19:17:09;;;;;;;10.55;2.58;;;;;;;16.34;71.00;100412.44;10365631;28;20069;-64
2022/10/22 19:22:10;;;;;;;10.93;2.55;;;;;;;16.16;71.21;100413.09;10348956;28;20074;-64
2022/10/22 19:27:12;;;;;;;8.77;2.78;;;;;;;16.09;71.55;100414.97;10364062;28;20060;-63
2022/10/22 19:32:15;;;;;;;8.73;2.85;;;;;;;16.06;71.48;100418.94;10365428;28;20066;-64
2022/10/22 19:37:16;;;;;;;6.57;3.00;;;;;;;16.01;71.68;100421.44;10361312;28;20451;-63
2022/10/22 19:42:19;;;;;;;12.23;3.47;;;;;;;16.01;71.33;100432.28;10370087;28;20681;-63
2022/10/22 19:47:20;;;;;;;10.55;4.53;;;;;;;15.99;71.43;100430.84;10371313;28;20069;-65
2022/10/22 19:52:22;;;;;;;14.90;6.10;;;;;;;15.95;71.51;100441.28;10367391;28;20132;-62
2022/10/22 19:57:23;;;;;;;14.57;4.82;;;;;;;15.90;71.74;100434.84;10329699;28;20054;-67
2022/10/22 20:02:25;;;;;;;15.57;5.55;;;;;;;15.88;71.87;100426.91;10319064;28;20042;-65
2022/10/22 20:07:28;;;;;;;11.85;6.10;;;;;;;15.83;71.76;100423.97;10357048;28;20120;-63
2022/10/22 20:12:29;;;;;;;17.58;6.18;;;;;;;15.78;71.81;100419.19;10369319;28;20073;-64
2022/10/22 20:17:31;;;;;;;15.93;8.10;;;;;;;15.71;71.93;100425.63;10343574;28;20444;-64
2022/10/22 20:22:32;;;;;;;13.25;6.75;;;;;;;15.67;72.02;100431.44;10345901;28;20061;-65
2022/10/22 20:27:34;;;;;;;9.98;4.07;;;;;;;15.66;72.15;100431.66;10371916;28;20077;-63
2022/10/22 20:32:36;;;;;;;10.98;7.07;;;;;;;15.55;72.27;100432.28;10369246;28;20080;-63
2022/10/22 20:37:38;;;;;;;12.63;4.53;;;;;;;15.33;72.99;100448.69;10374541;28;20038;-62
2022/10/22 20:42:39;;;;;;;9.90;3.67;;;;;;;15.36;72.89;100442.03;10370270;28;20065;-61
2022/10/22 20:47:41;;;;;;;11.65;2.97;;;;;;;15.33;72.96;100443.28;10330990;28;20081;-65
2022/10/22 20:52:59;;;;;;;16.73;4.03;;;;;;;15.37;72.92;100447.25;10329163;28;20137;-64
2022/10/22 20:58:00;;;;;;;8.13;2.80;;;;;;;15.42;72.81;100444.78;10352815;28;20070;-62
2022/10/22 21:03:01;;;;;;;14.20;4.20;;;;;;;15.44;72.74;100436.41;10315068;28;20042;-64
2022/10/22 21:08:04;;;;;;;9.23;4.55;;;;;;;15.46;72.68;100435.19;10343763;28;20062;-62
2022/10/22 21:13:05;;;;;;;17.05;8.25;;;;;;;15.45;72.58;100435.38;10376822;28;20049;-61
2022/10/22 21:18:07;;;;;;;18.23;8.23;;;;;;;15.45;72.48;100428.09;10368688;28;20080;-63
2022/10/22 21:23:08;;;;;;;16.23;6.10;;;;;;;15.42;72.78;100430.38;10351169;28;20128;-63
2022/10/22 21:28:10;;;;;;;13.35;4.20;;;;;;;15.33;72.91;100424.31;10347387;28;20038;-65
2022/10/22 21:33:11;;;;;;;11.75;3.17;;;;;;;15.35;72.86;100419.53;10374993;28;20073;-67
2022/10/22 21:38:13;;;;;;;9.02;2.92;;;;;;;15.33;72.76;100418.06;10366385;28;20129;-61
2022/10/22 21:43:15;;;;;;;6.05;2.80;;;;;;;15.33;72.64;100428.91;10366388;28;20065;-62
2022/10/22 21:48:17;;;;;;;6.18;2.70;;;;;;;15.29;73.02;100423.06;10362872;28;20441;-60
2022/10/22 21:53:19;;;;;;;7.30;2.80;;;;;;;15.27;72.88;100422.44;10365447;28;20061;-62
2022/10/22 21:58:20;;;;;;;12.73;3.97;;;;;;;15.21;72.84;100429.50;10369026;28;20069;-62
2022/10/22 22:03:22;;;;;;;8.65;3.45;;;;;;;15.08;73.49;100437.56;10367660;28;20034;-63
2022/10/22 22:08:24;;;;;;;8.88;3.03;;;;;;;15.08;73.24;100445.69;10344760;28;20069;-62
2022/10/22 22:13:26;;;;;;;10.70;3.60;;;;;;;15.13;73.10;100443.22;10359500;28;20065;-62
2022/10/22 22:18:28;;;;;;;13.20;4.05;;;;;;;15.09;73.18;100450.09;10347103;28;20054;-64
2022/10/22 22:23:30;;;;;;;8.63;4.10;;;;;;;15.02;73.20;100451.94;10332184;28;20069;-62
2022/10/22 22:28:33;;;;;;;12.40;3.95;;;;;;;14.99;73.46;100449.66;10327910;28;20603;-61
2022/10/22 22:33:35;;;;;;;10.00;4.60;;;;;;;14.89;73.31;100441.91;10321757;28;20043;-62
2022/10/22 22:38:37;;;;;;;18.25;6.88;;;;;;;14.87;73.32;100436.69;10323048;28;20489;-62
2022/10/22 22:43:38;;;;;;;19.50;10.00;;;;;;;14.83;73.50;100440.84;10351729;28;20054;-62
2022/10/22 22:48:40;;;;;;;9.30;3.30;;;;;;;14.67;73.83;100427.63;10347250;28;20081;-61
2022/10/22 22:53:41;;;;;;;7.40;3.63;;;;;;;14.66;73.63;100428.69;10364476;28;20093;-64
2022/10/22 22:58:43;;;;;;;15.27;5.90;;;;;;;14.65;73.68;100422.44;10340260;28;20482;-63
2022/10/22 23:03:55;;;;;;;18.10;6.55;;;;;;;14.63;73.46;100415.53;10351295;28;20112;-61
2022/10/22 23:08:57;;;;;;;12.93;5.53;;;;;;;14.53;73.71;100410.47;10372042;28;20038;-63
2022/10/22 23:14:00;;;;;;;9.57;3.55;;;;;;;14.42;73.92;100402.94;10367673;28;20069;-62
2022/10/22 23:19:04;;;;;;;15.45;3.45;;;;;;;14.35;74.00;100400.19;10364073;28;20099;-61